Time;durP1;ratioP1;P1;durP2;ratioP2;P2;SDS_P1;SDS_P2;PMS_P1;PMS_P2;Temp;Humidity;BMP_temperature;BMP_pressure;BME280_temperature;BME280_humidity;BME280_pressure;Samples;Min_cycle;Max_cycle;Signal;HPM_P1;HPM_P2
2023/09/26 00:08:27;;;;;;;15.9;11;;;;;;;17.19;91.86;;;;;
2023/09/26 00:19:27;;;;;;;15.9;11;;;;;;;17.13;92.09;;;;;
2023/09/26 00:30:27;;;;;;;15.9;11;;;;;;;17.23;92.24;;;;;
2023/09/26 00:41:27;;;;;;;13.9;9.4;;;;;;;17.29;91.51;;;;;
2023/09/26 00:51:27;;;;;;;13.9;9.4;;;;;;;17.21;91.3;;;;;
2023/09/26 01:01:27;;;;;;;13.9;9.4;;;;;;;17.21;91.47;;;;;
2023/09/26 01:12:27;;;;;;;12.3;7.5;;;;;;;17.33;91.15;;;;;
2023/09/26 01:23:27;;;;;;;12.3;7.5;;;;;;;17.27;90.99;;;;;
2023/09/26 01:33:27;;;;;;;12.3;7.5;;;;;;;17.34;91.18;;;;;
2023/09/26 01:44:28;;;;;;;9.8;6.6;;;;;;;17.35;90.9;;;;;
2023/09/26 01:55:27;;;;;;;9.8;6.6;;;;;;;17.29;90.85;;;;;
2023/09/26 02:06:26;;;;;;;11.2;6.2;;;;;;;17.19;91.09;;;;;
2023/09/26 02:16:27;;;;;;;11.2;6.2;;;;;;;17.22;90.88;;;;;
2023/09/26 02:26:27;;;;;;;11.2;6.2;;;;;;;16.95;91.03;;;;;
2023/09/26 02:36:27;;;;;;;11.4;6.6;;;;;;;16.62;91.91;;;;;
2023/09/26 02:46:27;;;;;;;11.4;6.6;;;;;;;16.44;92.15;;;;;
2023/09/26 02:56:27;;;;;;;11.4;6.6;;;;;;;16.35;92.11;;;;;
2023/09/26 03:07:27;;;;;;;9;6.4;;;;;;;16.19;91.97;;;;;
2023/09/26 03:18:27;;;;;;;9;6.4;;;;;;;15.96;91.88;;;;;
2023/09/26 03:28:27;;;;;;;9;6.4;;;;;;;15.81;92.08;;;;;
2023/09/26 03:39:27;;;;;;;14;6.6;;;;;;;15.55;91.58;;;;;
2023/09/26 03:49:27;;;;;;;14;6.6;;;;;;;15.2;91.24;;;;;
2023/09/26 03:59:27;;;;;;;14;6.6;;;;;;;15;91.23;;;;;
2023/09/26 04:10:27;;;;;;;14;6.4;;;;;;;14.78;90.91;;;;;
2023/09/26 04:20:27;;;;;;;14;6.4;;;;;;;14.61;91.12;;;;;
2023/09/26 04:31:27;;;;;;;14;6.4;;;;;;;14.48;92.12;;;;;
2023/09/26 04:42:27;;;;;;;9;6.1;;;;;;;14.48;92.43;;;;;
2023/09/26 04:52:27;;;;;;;9;6.1;;;;;;;14.55;93.42;;;;;
2023/09/26 05:03:27;;;;;;;9;6.1;;;;;;;14.68;92.72;;;;;
2023/09/26 05:14:27;;;;;;;9.2;5.7;;;;;;;14.88;92.56;;;;;
2023/09/26 05:24:27;;;;;;;9.2;5.7;;;;;;;15.17;92.96;;;;;
2023/09/26 05:35:27;;;;;;;13.2;9.8;;;;;;;15.53;92.54;;;;;
2023/09/26 05:46:27;;;;;;;13.2;9.8;;;;;;;15.93;92.6;;;;;
2023/09/26 05:56:27;;;;;;;13.2;9.8;;;;;;;16.33;92.37;;;;;
2023/09/26 06:07:27;;;;;;;8;5.3;;;;;;;16.75;91.3;;;;;
2023/09/26 06:17:27;;;;;;;8;5.3;;;;;;;17.03;91.27;;;;;
2023/09/26 06:28:27;;;;;;;8;5.3;;;;;;;17.36;91.1;;;;;
2023/09/26 06:38:28;;;;;;;8;4.7;;;;;;;17.8;89.76;;;;;
2023/09/26 06:49:27;;;;;;;8;4.7;;;;;;;17.91;88.37;;;;;
2023/09/26 07:00:27;;;;;;;8;4.7;;;;;;;18.16;88.02;;;;;
2023/09/26 07:10:28;;;;;;;12.6;6.2;;;;;;;18.41;87.64;;;;;
2023/09/26 07:20:28;;;;;;;12.6;6.2;;;;;;;18.95;84.93;;;;;
2023/09/26 07:30:27;;;;;;;12.6;6.2;;;;;;;19.3;83.23;;;;;
2023/09/26 07:41:27;;;;;;;9.1;6.4;;;;;;;19.85;82.48;;;;;
2023/09/26 07:51:27;;;;;;;9.1;6.4;;;;;;;19.64;82.91;;;;;
2023/09/26 08:02:27;;;;;;;9.1;6.4;;;;;;;19.73;82.3;;;;;
2023/09/26 08:12:27;;;;;;;9.7;6.8;;;;;;;19.63;83.14;;;;;
2023/09/26 08:23:28;;;;;;;9.7;6.8;;;;;;;20.27;82.79;;;;;
2023/09/26 08:34:27;;;;;;;9.9;6.7;;;;;;;20.59;81.22;;;;;
2023/09/26 08:44:27;;;;;;;9.9;6.7;;;;;;;20.89;82;;;;;
2023/09/26 08:54:27;;;;;;;9.9;6.7;;;;;;;21.42;79.86;;;;;
2023/09/26 09:04:27;;;;;;;9.5;5.5;;;;;;;21.69;77.76;;;;;
2023/09/26 09:14:27;;;;;;;9.5;5.5;;;;;;;21.85;77.12;;;;;
2023/09/26 09:24:27;;;;;;;9.5;5.5;;;;;;;22.21;76.96;;;;;
2023/09/26 09:35:28;;;;;;;11;6.4;;;;;;;22.33;75.9;;;;;
2023/09/26 09:46:27;;;;;;;11;6.4;;;;;;;22.51;77.43;;;;;
2023/09/26 09:56:27;;;;;;;11;6.4;;;;;;;22.87;76.52;;;;;
2023/09/26 10:07:28;;;;;;;10.8;6.6;;;;;;;22.97;74.97;;;;;
2023/09/26 10:17:28;;;;;;;10.8;6.6;;;;;;;23.32;74.13;;;;;
2023/09/26 10:28:27;;;;;;;10.8;6.6;;;;;;;23.66;73.44;;;;;
2023/09/26 10:38:27;;;;;;;12.5;6.4;;;;;;;23.76;73.48;;;;;
2023/09/26 10:49:27;;;;;;;12.5;6.4;;;;;;;23.53;74.44;;;;;
2023/09/26 11:00:27;;;;;;;12.5;6.4;;;;;;;23.79;72.64;;;;;
2023/09/26 11:10:27;;;;;;;10.8;6.1;;;;;;;23.86;72.29;;;;;
2023/09/26 11:21:28;;;;;;;10.8;6.1;;;;;;;23.91;71.64;;;;;
2023/09/26 11:31:29;;;;;;;10.8;6.1;;;;;;;24.17;70.13;;;;;
2023/09/26 11:42:28;;;;;;;14.2;6.3;;;;;;;24.3;70.67;;;;;
2023/09/26 11:52:28;;;;;;;14.2;6.3;;;;;;;24.33;70.51;;;;;
2023/09/26 12:03:27;;;;;;;14.2;6.3;;;;;;;24.38;71.04;;;;;
2023/09/26 12:13:27;;;;;;;11.4;6.4;;;;;;;23.9;70.58;;;;;
2023/09/26 12:23:28;;;;;;;11.4;6.4;;;;;;;24.4;69.19;;;;;
2023/09/26 12:33:28;;;;;;;11.4;6.4;;;;;;;24.64;68.65;;;;;
2023/09/26 12:43:28;;;;;;;10.8;6.5;;;;;;;24.45;69.08;;;;;
2023/09/26 12:54:28;;;;;;;10.8;6.5;;;;;;;24.82;68.1;;;;;
2023/09/26 13:04:28;;;;;;;10.2;5.7;;;;;;;25.03;66.86;;;;;
2023/09/26 13:15:31;;;;;;;10.2;5.7;;;;;;;24.99;68.51;;;;;
2023/09/26 13:25:28;;;;;;;10.2;5.7;;;;;;;25.21;66.43;;;;;
2023/09/26 13:35:29;;;;;;;8.6;6;;;;;;;25.25;67.52;;;;;
2023/09/26 13:46:28;;;;;;;8.6;6;;;;;;;25.18;68.14;;;;;
2023/09/26 13:56:28;;;;;;;8.6;6;;;;;;;25.32;68.38;;;;;
2023/09/26 14:06:28;;;;;;;10.7;7.1;;;;;;;25.18;68.74;;;;;
2023/09/26 14:17:28;;;;;;;10.7;7.1;;;;;;;25.4;67.3;;;;;
2023/09/26 14:28:28;;;;;;;10.7;7.1;;;;;;;25.34;67.58;;;;;
2023/09/26 14:39:27;;;;;;;10.9;7.7;;;;;;;25.34;67.13;;;;;
2023/09/26 14:49:28;;;;;;;10.9;7.7;;;;;;;25.35;67.83;;;;;
2023/09/26 15:00:28;;;;;;;10.9;7.7;;;;;;;24.93;67.18;;;;;
2023/09/26 15:11:28;;;;;;;11.3;8.3;;;;;;;24.95;68.53;;;;;
2023/09/26 15:22:28;;;;;;;11.3;8.3;;;;;;;25.54;68.03;;;;;
2023/09/26 15:32:28;;;;;;;11.3;8.3;;;;;;;26.52;63.25;;;;;
2023/09/26 15:43:28;;;;;;;12;7.8;;;;;;;27.36;61.56;;;;;
2023/09/26 15:54:28;;;;;;;12;7.8;;;;;;;26.78;62.28;;;;;
2023/09/26 16:04:28;;;;;;;12;7.8;;;;;;;25.79;64.4;;;;;
2023/09/26 16:14:28;;;;;;;13.3;8.1;;;;;;;24.53;68.22;;;;;
2023/09/26 16:24:28;;;;;;;13.3;8.1;;;;;;;23.6;70.87;;;;;
2023/09/26 16:35:28;;;;;;;14.1;9.5;;;;;;;22.66;73.83;;;;;
2023/09/26 16:45:28;;;;;;;14.1;9.5;;;;;;;22.01;76.26;;;;;
2023/09/26 16:55:28;;;;;;;14.1;9.5;;;;;;;21.34;79.68;;;;;
2023/09/26 17:06:28;;;;;;;14.6;10.2;;;;;;;20.9;81.01;;;;;
2023/09/26 17:16:28;;;;;;;14.6;10.2;;;;;;;20.52;81.91;;;;;
2023/09/26 17:26:28;;;;;;;14.6;10.2;;;;;;;20.17;82.85;;;;;
2023/09/26 17:37:28;;;;;;;15.7;12.6;;;;;;;19.83;84.29;;;;;
2023/09/26 17:48:30;;;;;;;15.7;12.6;;;;;;;19.53;84.82;;;;;
2023/09/26 17:58:28;;;;;;;15.7;12.6;;;;;;;19.26;85.29;;;;;
2023/09/26 18:09:28;;;;;;;14.2;11;;;;;;;18.95;85.27;;;;;
2023/09/26 18:19:28;;;;;;;14.2;11;;;;;;;18.73;85.43;;;;;
2023/09/26 18:29:28;;;;;;;14.2;11;;;;;;;18.49;85.37;;;;;
2023/09/26 18:40:28;;;;;;;16;10.6;;;;;;;18.23;85.33;;;;;
2023/09/26 18:50:28;;;;;;;16;10.6;;;;;;;18.05;85.61;;;;;
2023/09/26 19:00:28;;;;;;;16;10.6;;;;;;;17.82;85.61;;;;;
2023/09/26 19:11:28;;;;;;;14.9;10.1;;;;;;;17.65;85.94;;;;;
2023/09/26 19:21:28;;;;;;;14.9;10.1;;;;;;;17.43;86.48;;;;;
2023/09/26 19:32:28;;;;;;;14.9;10.1;;;;;;;17.22;86.69;;;;;
2023/09/26 19:43:28;;;;;;;17.7;13.2;;;;;;;16.9;86.96;;;;;
2023/09/26 19:54:28;;;;;;;17.7;13.2;;;;;;;16.68;87.51;;;;;
2023/09/26 20:04:28;;;;;;;17.7;13.2;;;;;;;16.41;87.34;;;;;
2023/09/26 20:15:28;;;;;;;16.2;10.7;;;;;;;16.17;87.72;;;;;
2023/09/26 20:25:28;;;;;;;16.2;10.7;;;;;;;16.01;89.28;;;;;
2023/09/26 20:36:28;;;;;;;17;10.3;;;;;;;15.82;89.38;;;;;
2023/09/26 20:46:28;;;;;;;17;10.3;;;;;;;15.66;90.31;;;;;
2023/09/26 20:57:28;;;;;;;17;10.3;;;;;;;15.49;91.56;;;;;
2023/09/26 21:07:28;;;;;;;19;10.1;;;;;;;15.37;90.88;;;;;
2023/09/26 21:18:28;;;;;;;19;10.1;;;;;;;15.23;90.42;;;;;
2023/09/26 21:28:29;;;;;;;19;10.1;;;;;;;15.08;90.18;;;;;
2023/09/26 21:39:28;;;;;;;13.2;10.1;;;;;;;14.95;91.88;;;;;
2023/09/26 21:49:28;;;;;;;13.2;10.1;;;;;;;14.92;92.33;;;;;
2023/09/26 22:00:28;;;;;;;13.2;10.1;;;;;;;14.86;92.17;;;;;
2023/09/26 22:10:28;;;;;;;13.7;12;;;;;;;14.74;91.37;;;;;
2023/09/26 22:20:30;;;;;;;13.7;12;;;;;;;14.56;91.19;;;;;
2023/09/26 22:30:31;;;;;;;13.7;12;;;;;;;14.35;91.42;;;;;
2023/09/26 22:40:29;;;;;;;15.5;8.8;;;;;;;14.2;91.55;;;;;
2023/09/26 22:51:28;;;;;;;15.5;8.8;;;;;;;14.12;92.3;;;;;
2023/09/26 23:02:28;;;;;;;15.5;8.8;;;;;;;14.01;91.88;;;;;
2023/09/26 23:12:28;;;;;;;17.3;11.7;;;;;;;13.88;92.25;;;;;
2023/09/26 23:23:28;;;;;;;17.3;11.7;;;;;;;13.77;92.19;;;;;
2023/09/26 23:33:28;;;;;;;17.3;11.7;;;;;;;13.67;92.18;;;;;
2023/09/26 23:44:29;;;;;;;16.4;11.5;;;;;;;13.53;91.98;;;;;
2023/09/26 23:54:28;;;;;;;16.4;11.5;;;;;;;13.5;92.42;;;;;
